sensor_id;sensor_type;location;lat;lon;timestamp;P1;durP1;ratioP1;P2;durP2;ratioP2
76065;SDS011;64763;48.928;8.474;2023-04-09T00:01:08;11.10;;;6.47;;
76065;SDS011;64763;48.928;8.474;2023-04-09T00:03:35;8.93;;;6.55;;
76065;SDS011;64763;48.928;8.474;2023-04-09T00:06:01;8.48;;;6.60;;
76065;SDS011;64763;48.928;8.474;2023-04-09T00:08:26;8.40;;;6.82;;
76065;SDS011;64763;48.928;8.474;2023-04-09T00:10:52;9.65;;;6.38;;
76065;SDS011;64763;48.928;8.474;2023-04-09T00:13:17;9.38;;;7.38;;
76065;SDS011;64763;48.928;8.474;2023-04-09T00:15:43;10.02;;;6.57;;
76065;SDS011;64763;48.928;8.474;2023-04-09T00:18:09;9.63;;;6.82;;
76065;SDS011;64763;48.928;8.474;2023-04-09T00:20:35;9.85;;;6.38;;
76065;SDS011;64763;48.928;8.474;2023-04-09T00:23:00;10.32;;;6.63;;
76065;SDS011;64763;48.928;8.474;2023-04-09T00:25:26;9.95;;;6.82;;
76065;SDS011;64763;48.928;8.474;2023-04-09T00:27:52;9.07;;;6.65;;
76065;SDS011;64763;48.928;8.474;2023-04-09T00:30:18;9.63;;;6.90;;
76065;SDS011;64763;48.928;8.474;2023-04-09T00:32:44;10.30;;;6.78;;
76065;SDS011;64763;48.928;8.474;2023-04-09T00:35:10;10.98;;;6.82;;
76065;SDS011;64763;48.928;8.474;2023-04-09T00:37:35;11.68;;;7.35;;
76065;SDS011;64763;48.928;8.474;2023-04-09T00:40:01;11.05;;;7.15;;
76065;SDS011;64763;48.928;8.474;2023-04-09T00:42:29;10.95;;;7.55;;
76065;SDS011;64763;48.928;8.474;2023-04-09T00:44:56;12.23;;;7.63;;
76065;SDS011;64763;48.928;8.474;2023-04-09T00:47:21;9.57;;;6.88;;
76065;SDS011;64763;48.928;8.474;2023-04-09T00:49:46;9.35;;;6.47;;
76065;SDS011;64763;48.928;8.474;2023-04-09T00:52:12;12.27;;;7.68;;
76065;SDS011;64763;48.928;8.474;2023-04-09T00:54:37;10.73;;;7.93;;
76065;SDS011;64763;48.928;8.474;2023-04-09T00:57:02;11.65;;;7.68;;
76065;SDS011;64763;48.928;8.474;2023-04-09T00:59:29;10.18;;;7.15;;
76065;SDS011;64763;48.928;8.474;2023-04-09T01:01:54;10.57;;;8.05;;
76065;SDS011;64763;48.928;8.474;2023-04-09T01:04:19;10.25;;;7.00;;
76065;SDS011;64763;48.928;8.474;2023-04-09T01:06:50;11.77;;;7.93;;
76065;SDS011;64763;48.928;8.474;2023-04-09T01:11:49;11.23;;;7.88;;
76065;SDS011;64763;48.928;8.474;2023-04-09T01:14:29;10.30;;;7.80;;
76065;SDS011;64763;48.928;8.474;2023-04-09T01:16:59;10.98;;;6.95;;
76065;SDS011;64763;48.928;8.474;2023-04-09T01:22:22;10.82;;;7.03;;
76065;SDS011;64763;48.928;8.474;2023-04-09T01:27:35;11.95;;;7.50;;
76065;SDS011;64763;48.928;8.474;2023-04-09T01:30:03;11.88;;;7.85;;
76065;SDS011;64763;48.928;8.474;2023-04-09T01:32:29;12.52;;;8.40;;
76065;SDS011;64763;48.928;8.474;2023-04-09T01:34:57;10.88;;;7.97;;
76065;SDS011;64763;48.928;8.474;2023-04-09T01:37:23;11.65;;;7.70;;
76065;SDS011;64763;48.928;8.474;2023-04-09T01:39:49;11.63;;;7.55;;
76065;SDS011;64763;48.928;8.474;2023-04-09T01:42:14;10.90;;;7.95;;
76065;SDS011;64763;48.928;8.474;2023-04-09T01:44:40;11.10;;;7.60;;
76065;SDS011;64763;48.928;8.474;2023-04-09T01:47:07;11.02;;;7.95;;
76065;SDS011;64763;48.928;8.474;2023-04-09T01:49:33;12.95;;;8.93;;
76065;SDS011;64763;48.928;8.474;2023-04-09T01:51:59;10.57;;;7.65;;
76065;SDS011;64763;48.928;8.474;2023-04-09T01:54:24;13.13;;;8.45;;
76065;SDS011;64763;48.928;8.474;2023-04-09T01:56:50;13.25;;;8.68;;
76065;SDS011;64763;48.928;8.474;2023-04-09T01:59:15;13.65;;;9.45;;
76065;SDS011;64763;48.928;8.474;2023-04-09T02:04:31;13.82;;;8.85;;
76065;SDS011;64763;48.928;8.474;2023-04-09T02:07:13;12.70;;;8.73;;
76065;SDS011;64763;48.928;8.474;2023-04-09T02:09:39;13.82;;;9.20;;
76065;SDS011;64763;48.928;8.474;2023-04-09T02:12:05;13.55;;;8.95;;
76065;SDS011;64763;48.928;8.474;2023-04-09T02:14:33;13.77;;;8.80;;
76065;SDS011;64763;48.928;8.474;2023-04-09T02:16:59;13.73;;;9.38;;
76065;SDS011;64763;48.928;8.474;2023-04-09T02:19:36;13.10;;;9.27;;
76065;SDS011;64763;48.928;8.474;2023-04-09T02:22:11;15.23;;;9.57;;
76065;SDS011;64763;48.928;8.474;2023-04-09T02:24:37;13.55;;;9.07;;
76065;SDS011;64763;48.928;8.474;2023-04-09T02:27:03;14.63;;;10.10;;
76065;SDS011;64763;48.928;8.474;2023-04-09T02:29:30;15.02;;;9.65;;
76065;SDS011;64763;48.928;8.474;2023-04-09T02:31:55;16.10;;;10.20;;
76065;SDS011;64763;48.928;8.474;2023-04-09T02:34:21;14.15;;;10.27;;
76065;SDS011;64763;48.928;8.474;2023-04-09T02:36:46;13.98;;;9.77;;
76065;SDS011;64763;48.928;8.474;2023-04-09T02:39:11;14.30;;;9.68;;
76065;SDS011;64763;48.928;8.474;2023-04-09T02:41:37;16.25;;;10.10;;
76065;SDS011;64763;48.928;8.474;2023-04-09T02:44:02;15.38;;;10.10;;
76065;SDS011;64763;48.928;8.474;2023-04-09T02:46:28;14.43;;;9.75;;
76065;SDS011;64763;48.928;8.474;2023-04-09T02:48:53;17.27;;;10.57;;
76065;SDS011;64763;48.928;8.474;2023-04-09T02:51:18;17.35;;;9.27;;
76065;SDS011;64763;48.928;8.474;2023-04-09T02:53:44;15.07;;;9.27;;
76065;SDS011;64763;48.928;8.474;2023-04-09T02:56:09;16.60;;;10.50;;
76065;SDS011;64763;48.928;8.474;2023-04-09T02:58:35;14.02;;;9.48;;
76065;SDS011;64763;48.928;8.474;2023-04-09T03:01:00;16.30;;;9.88;;
76065;SDS011;64763;48.928;8.474;2023-04-09T03:03:26;13.48;;;8.60;;
76065;SDS011;64763;48.928;8.474;2023-04-09T03:05:51;13.23;;;8.68;;
76065;SDS011;64763;48.928;8.474;2023-04-09T03:08:16;12.70;;;8.45;;
76065;SDS011;64763;48.928;8.474;2023-04-09T03:10:42;13.07;;;8.73;;
76065;SDS011;64763;48.928;8.474;2023-04-09T03:13:07;12.60;;;8.95;;
76065;SDS011;64763;48.928;8.474;2023-04-09T03:15:32;13.40;;;8.35;;
76065;SDS011;64763;48.928;8.474;2023-04-09T03:17:58;13.88;;;8.70;;
76065;SDS011;64763;48.928;8.474;2023-04-09T03:20:23;15.43;;;8.40;;
76065;SDS011;64763;48.928;8.474;2023-04-09T03:22:48;12.48;;;8.10;;
76065;SDS011;64763;48.928;8.474;2023-04-09T03:25:13;13.13;;;8.27;;
76065;SDS011;64763;48.928;8.474;2023-04-09T03:27:39;13.98;;;8.82;;
76065;SDS011;64763;48.928;8.474;2023-04-09T03:30:04;13.48;;;8.55;;
76065;SDS011;64763;48.928;8.474;2023-04-09T03:32:30;15.45;;;9.48;;
76065;SDS011;64763;48.928;8.474;2023-04-09T03:34:55;12.00;;;8.25;;
76065;SDS011;64763;48.928;8.474;2023-04-09T03:37:21;14.68;;;8.90;;
76065;SDS011;64763;48.928;8.474;2023-04-09T03:39:46;13.77;;;8.60;;
76065;SDS011;64763;48.928;8.474;2023-04-09T03:42:11;14.13;;;9.20;;
76065;SDS011;64763;48.928;8.474;2023-04-09T03:44:37;16.13;;;9.60;;
76065;SDS011;64763;48.928;8.474;2023-04-09T03:47:02;15.05;;;9.18;;
76065;SDS011;64763;48.928;8.474;2023-04-09T03:49:27;14.00;;;9.52;;
76065;SDS011;64763;48.928;8.474;2023-04-09T03:51:53;14.25;;;8.85;;
76065;SDS011;64763;48.928;8.474;2023-04-09T03:54:18;13.77;;;9.18;;
76065;SDS011;64763;48.928;8.474;2023-04-09T03:56:43;13.75;;;9.50;;
76065;SDS011;64763;48.928;8.474;2023-04-09T03:59:09;15.48;;;9.90;;
76065;SDS011;64763;48.928;8.474;2023-04-09T04:01:34;14.85;;;9.15;;
76065;SDS011;64763;48.928;8.474;2023-04-09T04:04:00;14.13;;;9.10;;
76065;SDS011;64763;48.928;8.474;2023-04-09T04:06:25;14.85;;;8.98;;
76065;SDS011;64763;48.928;8.474;2023-04-09T04:08:51;15.10;;;9.55;;
76065;SDS011;64763;48.928;8.474;2023-04-09T04:11:17;13.77;;;8.90;;
76065;SDS011;64763;48.928;8.474;2023-04-09T04:13:42;14.57;;;8.77;;
76065;SDS011;64763;48.928;8.474;2023-04-09T04:16:08;14.13;;;9.38;;
76065;SDS011;64763;48.928;8.474;2023-04-09T04:18:34;13.65;;;9.02;;
76065;SDS011;64763;48.928;8.474;2023-04-09T04:21:00;14.50;;;9.70;;
76065;SDS011;64763;48.928;8.474;2023-04-09T04:23:25;17.15;;;10.02;;
76065;SDS011;64763;48.928;8.474;2023-04-09T04:25:50;17.23;;;9.77;;
76065;SDS011;64763;48.928;8.474;2023-04-09T04:28:17;15.23;;;9.00;;
76065;SDS011;64763;48.928;8.474;2023-04-09T04:30:43;14.75;;;9.77;;
76065;SDS011;64763;48.928;8.474;2023-04-09T04:33:09;15.27;;;9.02;;
76065;SDS011;64763;48.928;8.474;2023-04-09T04:35:34;17.33;;;10.10;;
76065;SDS011;64763;48.928;8.474;2023-04-09T04:38:00;17.23;;;10.18;;
76065;SDS011;64763;48.928;8.474;2023-04-09T04:40:25;16.48;;;9.88;;
76065;SDS011;64763;48.928;8.474;2023-04-09T04:42:51;17.55;;;10.65;;
76065;SDS011;64763;48.928;8.474;2023-04-09T04:45:16;21.20;;;11.50;;
76065;SDS011;64763;48.928;8.474;2023-04-09T04:47:41;26.08;;;12.95;;
76065;SDS011;64763;48.928;8.474;2023-04-09T04:50:07;38.83;;;15.73;;
76065;SDS011;64763;48.928;8.474;2023-04-09T04:52:33;33.35;;;14.80;;
76065;SDS011;64763;48.928;8.474;2023-04-09T04:54:58;30.40;;;14.00;;
76065;SDS011;64763;48.928;8.474;2023-04-09T04:57:23;28.17;;;13.27;;
76065;SDS011;64763;48.928;8.474;2023-04-09T04:59:49;25.52;;;13.93;;
76065;SDS011;64763;48.928;8.474;2023-04-09T05:02:14;28.33;;;13.40;;
76065;SDS011;64763;48.928;8.474;2023-04-09T05:04:39;23.80;;;12.15;;
76065;SDS011;64763;48.928;8.474;2023-04-09T05:07:05;21.02;;;11.82;;
76065;SDS011;64763;48.928;8.474;2023-04-09T05:09:30;18.98;;;11.00;;
76065;SDS011;64763;48.928;8.474;2023-04-09T05:11:55;19.15;;;11.65;;
76065;SDS011;64763;48.928;8.474;2023-04-09T05:14:21;19.50;;;10.95;;
76065;SDS011;64763;48.928;8.474;2023-04-09T05:16:46;17.02;;;10.65;;
76065;SDS011;64763;48.928;8.474;2023-04-09T05:19:11;16.98;;;10.35;;
76065;SDS011;64763;48.928;8.474;2023-04-09T05:21:37;20.88;;;10.77;;
76065;SDS011;64763;48.928;8.474;2023-04-09T05:24:02;17.15;;;9.50;;
76065;SDS011;64763;48.928;8.474;2023-04-09T05:26:28;19.55;;;10.57;;
76065;SDS011;64763;48.928;8.474;2023-04-09T05:28:53;19.42;;;9.98;;
76065;SDS011;64763;48.928;8.474;2023-04-09T05:31:19;15.60;;;10.35;;
76065;SDS011;64763;48.928;8.474;2023-04-09T05:33:44;17.70;;;10.48;;
76065;SDS011;64763;48.928;8.474;2023-04-09T05:36:14;18.30;;;11.02;;
76065;SDS011;64763;48.928;8.474;2023-04-09T05:38:40;19.55;;;11.02;;
76065;SDS011;64763;48.928;8.474;2023-04-09T05:41:06;17.00;;;10.95;;
76065;SDS011;64763;48.928;8.474;2023-04-09T05:43:31;17.35;;;10.55;;
76065;SDS011;64763;48.928;8.474;2023-04-09T05:45:57;17.73;;;10.10;;
76065;SDS011;64763;48.928;8.474;2023-04-09T05:48:22;19.67;;;11.35;;
76065;SDS011;64763;48.928;8.474;2023-04-09T05:50:48;18.50;;;11.18;;
76065;SDS011;64763;48.928;8.474;2023-04-09T05:53:15;20.60;;;12.57;;
76065;SDS011;64763;48.928;8.474;2023-04-09T05:55:40;20.92;;;11.77;;
76065;SDS011;64763;48.928;8.474;2023-04-09T05:58:05;18.38;;;11.05;;
76065;SDS011;64763;48.928;8.474;2023-04-09T06:00:31;21.25;;;11.45;;
76065;SDS011;64763;48.928;8.474;2023-04-09T06:02:56;17.13;;;10.57;;
76065;SDS011;64763;48.928;8.474;2023-04-09T06:05:21;18.35;;;10.60;;
76065;SDS011;64763;48.928;8.474;2023-04-09T06:07:47;15.43;;;9.75;;
76065;SDS011;64763;48.928;8.474;2023-04-09T06:10:12;17.35;;;10.68;;
76065;SDS011;64763;48.928;8.474;2023-04-09T06:12:37;14.63;;;9.80;;
76065;SDS011;64763;48.928;8.474;2023-04-09T06:15:03;15.30;;;9.07;;
76065;SDS011;64763;48.928;8.474;2023-04-09T06:17:29;14.30;;;9.15;;
76065;SDS011;64763;48.928;8.474;2023-04-09T06:19:55;18.55;;;10.15;;
76065;SDS011;64763;48.928;8.474;2023-04-09T06:22:20;15.65;;;9.52;;
76065;SDS011;64763;48.928;8.474;2023-04-09T06:24:45;15.48;;;9.52;;
76065;SDS011;64763;48.928;8.474;2023-04-09T06:27:10;14.73;;;9.02;;
76065;SDS011;64763;48.928;8.474;2023-04-09T06:29:36;16.08;;;8.75;;
76065;SDS011;64763;48.928;8.474;2023-04-09T06:32:01;14.63;;;9.13;;
76065;SDS011;64763;48.928;8.474;2023-04-09T06:34:27;14.13;;;8.77;;
76065;SDS011;64763;48.928;8.474;2023-04-09T06:36:53;14.35;;;8.07;;
76065;SDS011;64763;48.928;8.474;2023-04-09T06:39:18;15.73;;;9.55;;
76065;SDS011;64763;48.928;8.474;2023-04-09T06:41:43;15.32;;;9.68;;
76065;SDS011;64763;48.928;8.474;2023-04-09T06:44:09;15.75;;;9.63;;
76065;SDS011;64763;48.928;8.474;2023-04-09T06:46:34;18.20;;;10.25;;
76065;SDS011;64763;48.928;8.474;2023-04-09T06:48:59;15.07;;;9.35;;
76065;SDS011;64763;48.928;8.474;2023-04-09T06:51:25;17.20;;;9.90;;
76065;SDS011;64763;48.928;8.474;2023-04-09T06:53:51;19.58;;;10.23;;
76065;SDS011;64763;48.928;8.474;2023-04-09T06:56:16;16.05;;;9.63;;
76065;SDS011;64763;48.928;8.474;2023-04-09T06:58:41;15.05;;;9.35;;
76065;SDS011;64763;48.928;8.474;2023-04-09T07:01:06;15.38;;;9.50;;
76065;SDS011;64763;48.928;8.474;2023-04-09T07:03:32;14.23;;;8.77;;
76065;SDS011;64763;48.928;8.474;2023-04-09T07:05:57;11.05;;;7.63;;
76065;SDS011;64763;48.928;8.474;2023-04-09T07:08:23;14.02;;;9.38;;
76065;SDS011;64763;48.928;8.474;2023-04-09T07:10:48;15.70;;;9.98;;
76065;SDS011;64763;48.928;8.474;2023-04-09T07:13:13;17.33;;;10.27;;
76065;SDS011;64763;48.928;8.474;2023-04-09T07:15:39;18.33;;;10.77;;
76065;SDS011;64763;48.928;8.474;2023-04-09T07:18:04;14.77;;;9.27;;
76065;SDS011;64763;48.928;8.474;2023-04-09T07:20:30;16.02;;;9.73;;
76065;SDS011;64763;48.928;8.474;2023-04-09T07:22:55;14.50;;;9.68;;
76065;SDS011;64763;48.928;8.474;2023-04-09T07:25:20;16.05;;;9.73;;
76065;SDS011;64763;48.928;8.474;2023-04-09T07:27:46;15.93;;;9.88;;
76065;SDS011;64763;48.928;8.474;2023-04-09T07:30:11;15.93;;;9.88;;
76065;SDS011;64763;48.928;8.474;2023-04-09T07:32:37;15.70;;;9.63;;
76065;SDS011;64763;48.928;8.474;2023-04-09T07:35:03;15.93;;;9.40;;
76065;SDS011;64763;48.928;8.474;2023-04-09T07:37:31;17.27;;;10.43;;
76065;SDS011;64763;48.928;8.474;2023-04-09T07:39:56;14.27;;;9.68;;
76065;SDS011;64763;48.928;8.474;2023-04-09T07:42:21;17.20;;;10.85;;
76065;SDS011;64763;48.928;8.474;2023-04-09T07:44:47;18.13;;;11.35;;
76065;SDS011;64763;48.928;8.474;2023-04-09T07:47:12;18.30;;;11.40;;
76065;SDS011;64763;48.928;8.474;2023-04-09T07:49:38;21.15;;;12.80;;
76065;SDS011;64763;48.928;8.474;2023-04-09T07:52:03;17.25;;;11.45;;
76065;SDS011;64763;48.928;8.474;2023-04-09T07:54:29;19.23;;;11.18;;
76065;SDS011;64763;48.928;8.474;2023-04-09T07:56:58;19.23;;;11.68;;
76065;SDS011;64763;48.928;8.474;2023-04-09T07:59:24;18.10;;;11.73;;
76065;SDS011;64763;48.928;8.474;2023-04-09T08:01:49;16.80;;;9.80;;
76065;SDS011;64763;48.928;8.474;2023-04-09T08:04:15;16.33;;;10.63;;
76065;SDS011;64763;48.928;8.474;2023-04-09T08:06:41;15.52;;;10.38;;
76065;SDS011;64763;48.928;8.474;2023-04-09T08:09:06;15.82;;;10.07;;
76065;SDS011;64763;48.928;8.474;2023-04-09T08:11:32;16.65;;;9.73;;
76065;SDS011;64763;48.928;8.474;2023-04-09T08:13:57;15.57;;;10.65;;
76065;SDS011;64763;48.928;8.474;2023-04-09T08:16:25;18.08;;;11.40;;
76065;SDS011;64763;48.928;8.474;2023-04-09T08:18:50;15.43;;;10.00;;
76065;SDS011;64763;48.928;8.474;2023-04-09T08:21:16;17.38;;;10.02;;
76065;SDS011;64763;48.928;8.474;2023-04-09T08:23:42;16.83;;;10.25;;
76065;SDS011;64763;48.928;8.474;2023-04-09T08:26:07;17.15;;;10.50;;
76065;SDS011;64763;48.928;8.474;2023-04-09T08:28:32;16.45;;;10.00;;
76065;SDS011;64763;48.928;8.474;2023-04-09T08:30:58;17.05;;;10.80;;
76065;SDS011;64763;48.928;8.474;2023-04-09T08:33:24;15.50;;;10.02;;
76065;SDS011;64763;48.928;8.474;2023-04-09T08:35:50;12.20;;;7.28;;
76065;SDS011;64763;48.928;8.474;2023-04-09T08:38:15;11.43;;;7.97;;
76065;SDS011;64763;48.928;8.474;2023-04-09T08:40:42;9.38;;;6.72;;
76065;SDS011;64763;48.928;8.474;2023-04-09T08:43:07;15.10;;;7.95;;
76065;SDS011;64763;48.928;8.474;2023-04-09T08:45:34;14.20;;;8.40;;
76065;SDS011;64763;48.928;8.474;2023-04-09T08:48:01;13.32;;;8.63;;
76065;SDS011;64763;48.928;8.474;2023-04-09T08:50:30;14.07;;;9.77;;
76065;SDS011;64763;48.928;8.474;2023-04-09T08:52:56;12.20;;;8.07;;
76065;SDS011;64763;48.928;8.474;2023-04-09T08:55:22;11.02;;;7.32;;
76065;SDS011;64763;48.928;8.474;2023-04-09T08:57:48;12.60;;;7.85;;
76065;SDS011;64763;48.928;8.474;2023-04-09T09:00:13;10.38;;;6.50;;
76065;SDS011;64763;48.928;8.474;2023-04-09T09:02:40;10.02;;;6.20;;
76065;SDS011;64763;48.928;8.474;2023-04-09T09:05:42;8.73;;;5.50;;
76065;SDS011;64763;48.928;8.474;2023-04-09T09:08:09;8.45;;;5.20;;
76065;SDS011;64763;48.928;8.474;2023-04-09T09:10:35;9.43;;;5.97;;
76065;SDS011;64763;48.928;8.474;2023-04-09T09:13:14;8.93;;;4.93;;
76065;SDS011;64763;48.928;8.474;2023-04-09T09:15:41;7.05;;;4.82;;
76065;SDS011;64763;48.928;8.474;2023-04-09T09:18:06;8.75;;;4.80;;
76065;SDS011;64763;48.928;8.474;2023-04-09T09:20:32;7.43;;;4.50;;
76065;SDS011;64763;48.928;8.474;2023-04-09T09:22:57;6.40;;;4.57;;
76065;SDS011;64763;48.928;8.474;2023-04-09T09:25:23;6.75;;;4.57;;
76065;SDS011;64763;48.928;8.474;2023-04-09T09:27:50;6.70;;;4.68;;
76065;SDS011;64763;48.928;8.474;2023-04-09T09:30:19;7.20;;;5.00;;
76065;SDS011;64763;48.928;8.474;2023-04-09T09:32:52;7.10;;;4.65;;
76065;SDS011;64763;48.928;8.474;2023-04-09T09:35:18;8.25;;;5.88;;
76065;SDS011;64763;48.928;8.474;2023-04-09T09:37:43;8.77;;;5.65;;
76065;SDS011;64763;48.928;8.474;2023-04-09T09:40:09;8.60;;;5.28;;
76065;SDS011;64763;48.928;8.474;2023-04-09T09:42:35;8.27;;;5.93;;
76065;SDS011;64763;48.928;8.474;2023-04-09T09:45:00;8.85;;;5.38;;
76065;SDS011;64763;48.928;8.474;2023-04-09T09:47:30;7.05;;;5.22;;
76065;SDS011;64763;48.928;8.474;2023-04-09T09:49:55;9.93;;;5.85;;
76065;SDS011;64763;48.928;8.474;2023-04-09T09:52:23;9.30;;;5.60;;
76065;SDS011;64763;48.928;8.474;2023-04-09T09:54:51;8.57;;;6.00;;
76065;SDS011;64763;48.928;8.474;2023-04-09T09:57:18;7.18;;;5.18;;
76065;SDS011;64763;48.928;8.474;2023-04-09T09:59:53;7.20;;;5.03;;
76065;SDS011;64763;48.928;8.474;2023-04-09T10:02:22;8.05;;;5.13;;
76065;SDS011;64763;48.928;8.474;2023-04-09T10:04:48;7.72;;;5.47;;
76065;SDS011;64763;48.928;8.474;2023-04-09T10:07:15;6.28;;;4.60;;
76065;SDS011;64763;48.928;8.474;2023-04-09T10:09:41;7.90;;;5.20;;
76065;SDS011;64763;48.928;8.474;2023-04-09T10:12:10;7.00;;;4.85;;
76065;SDS011;64763;48.928;8.474;2023-04-09T10:14:36;8.10;;;5.05;;
76065;SDS011;64763;48.928;8.474;2023-04-09T10:17:02;7.82;;;4.95;;
76065;SDS011;64763;48.928;8.474;2023-04-09T10:19:28;6.22;;;4.45;;
76065;SDS011;64763;48.928;8.474;2023-04-09T10:21:56;7.18;;;4.40;;
76065;SDS011;64763;48.928;8.474;2023-04-09T10:24:24;6.10;;;3.88;;
76065;SDS011;64763;48.928;8.474;2023-04-09T10:26:50;5.95;;;4.00;;
76065;SDS011;64763;48.928;8.474;2023-04-09T10:29:21;5.18;;;3.85;;
76065;SDS011;64763;48.928;8.474;2023-04-09T10:31:52;6.35;;;4.53;;
76065;SDS011;64763;48.928;8.474;2023-04-09T10:34:19;5.40;;;4.10;;
76065;SDS011;64763;48.928;8.474;2023-04-09T10:36:48;7.30;;;4.93;;
76065;SDS011;64763;48.928;8.474;2023-04-09T10:39:16;6.43;;;4.22;;
76065;SDS011;64763;48.928;8.474;2023-04-09T10:41:42;6.65;;;4.55;;
76065;SDS011;64763;48.928;8.474;2023-04-09T10:44:18;6.05;;;4.15;;
76065;SDS011;64763;48.928;8.474;2023-04-09T10:46:44;5.97;;;4.00;;
76065;SDS011;64763;48.928;8.474;2023-04-09T10:49:10;6.63;;;4.60;;
76065;SDS011;64763;48.928;8.474;2023-04-09T10:59:33;11.68;;;4.32;;
76065;SDS011;64763;48.928;8.474;2023-04-09T11:01:59;5.32;;;3.72;;
76065;SDS011;64763;48.928;8.474;2023-04-09T11:04:27;5.30;;;4.10;;
76065;SDS011;64763;48.928;8.474;2023-04-09T11:07:16;6.43;;;4.22;;
76065;SDS011;64763;48.928;8.474;2023-04-09T11:09:43;6.43;;;4.07;;
76065;SDS011;64763;48.928;8.474;2023-04-09T11:12:10;6.47;;;4.10;;
76065;SDS011;64763;48.928;8.474;2023-04-09T11:14:35;6.82;;;4.00;;
76065;SDS011;64763;48.928;8.474;2023-04-09T11:17:01;5.40;;;3.97;;
76065;SDS011;64763;48.928;8.474;2023-04-09T11:19:27;6.95;;;4.22;;
76065;SDS011;64763;48.928;8.474;2023-04-09T11:21:52;5.70;;;3.72;;
76065;SDS011;64763;48.928;8.474;2023-04-09T11:24:18;5.13;;;3.67;;
76065;SDS011;64763;48.928;8.474;2023-04-09T11:26:43;6.03;;;3.60;;
76065;SDS011;64763;48.928;8.474;2023-04-09T11:29:09;6.38;;;3.67;;
76065;SDS011;64763;48.928;8.474;2023-04-09T11:31:35;5.55;;;3.78;;
76065;SDS011;64763;48.928;8.474;2023-04-09T11:34:01;4.80;;;3.22;;
76065;SDS011;64763;48.928;8.474;2023-04-09T11:36:26;6.07;;;3.60;;
76065;SDS011;64763;48.928;8.474;2023-04-09T11:38:52;5.38;;;3.55;;
76065;SDS011;64763;48.928;8.474;2023-04-09T11:41:36;4.88;;;3.20;;
76065;SDS011;64763;48.928;8.474;2023-04-09T11:44:02;4.47;;;3.20;;
76065;SDS011;64763;48.928;8.474;2023-04-09T11:46:29;5.20;;;3.40;;
76065;SDS011;64763;48.928;8.474;2023-04-09T11:48:56;4.47;;;2.97;;
76065;SDS011;64763;48.928;8.474;2023-04-09T11:51:22;4.60;;;3.08;;
76065;SDS011;64763;48.928;8.474;2023-04-09T11:53:48;4.70;;;3.20;;
76065;SDS011;64763;48.928;8.474;2023-04-09T11:56:13;4.28;;;3.30;;
76065;SDS011;64763;48.928;8.474;2023-04-09T11:58:43;6.13;;;3.60;;
76065;SDS011;64763;48.928;8.474;2023-04-09T12:01:10;4.93;;;3.22;;
76065;SDS011;64763;48.928;8.474;2023-04-09T12:03:36;5.10;;;3.63;;
76065;SDS011;64763;48.928;8.474;2023-04-09T12:06:01;4.72;;;3.38;;
76065;SDS011;64763;48.928;8.474;2023-04-09T12:08:27;4.50;;;3.08;;
76065;SDS011;64763;48.928;8.474;2023-04-09T12:10:53;4.22;;;3.03;;
76065;SDS011;64763;48.928;8.474;2023-04-09T12:13:18;5.68;;;3.42;;
76065;SDS011;64763;48.928;8.474;2023-04-09T12:15:44;5.63;;;4.10;;
76065;SDS011;64763;48.928;8.474;2023-04-09T12:18:12;4.93;;;3.63;;
76065;SDS011;64763;48.928;8.474;2023-04-09T12:20:41;5.10;;;3.92;;
76065;SDS011;64763;48.928;8.474;2023-04-09T12:23:08;5.65;;;3.17;;
76065;SDS011;64763;48.928;8.474;2023-04-09T12:25:35;5.05;;;3.38;;
76065;SDS011;64763;48.928;8.474;2023-04-09T12:28:02;4.93;;;3.55;;
76065;SDS011;64763;48.928;8.474;2023-04-09T12:30:28;4.97;;;3.55;;
76065;SDS011;64763;48.928;8.474;2023-04-09T12:32:54;4.25;;;3.00;;
76065;SDS011;64763;48.928;8.474;2023-04-09T12:35:20;6.47;;;3.70;;
76065;SDS011;64763;48.928;8.474;2023-04-09T12:37:46;4.60;;;3.33;;
76065;SDS011;64763;48.928;8.474;2023-04-09T12:40:11;5.68;;;3.55;;
76065;SDS011;64763;48.928;8.474;2023-04-09T12:42:40;4.07;;;2.97;;
76065;SDS011;64763;48.928;8.474;2023-04-09T12:45:07;4.82;;;2.88;;
76065;SDS011;64763;48.928;8.474;2023-04-09T12:47:33;4.10;;;2.90;;
76065;SDS011;64763;48.928;8.474;2023-04-09T12:49:58;4.55;;;3.40;;
76065;SDS011;64763;48.928;8.474;2023-04-09T12:52:24;7.00;;;3.50;;
76065;SDS011;64763;48.928;8.474;2023-04-09T12:54:50;4.40;;;3.00;;
76065;SDS011;64763;48.928;8.474;2023-04-09T12:57:16;5.15;;;3.83;;
76065;SDS011;64763;48.928;8.474;2023-04-09T12:59:41;4.85;;;3.70;;
76065;SDS011;64763;48.928;8.474;2023-04-09T13:02:06;5.10;;;4.30;;
76065;SDS011;64763;48.928;8.474;2023-04-09T13:04:32;5.80;;;3.75;;
76065;SDS011;64763;48.928;8.474;2023-04-09T13:06:57;5.47;;;4.45;;
76065;SDS011;64763;48.928;8.474;2023-04-09T13:09:23;4.55;;;3.53;;
76065;SDS011;64763;48.928;8.474;2023-04-09T13:11:49;5.57;;;4.00;;
76065;SDS011;64763;48.928;8.474;2023-04-09T13:14:14;4.68;;;3.50;;
76065;SDS011;64763;48.928;8.474;2023-04-09T13:16:40;4.60;;;3.47;;
76065;SDS011;64763;48.928;8.474;2023-04-09T13:19:06;4.57;;;3.95;;
76065;SDS011;64763;48.928;8.474;2023-04-09T13:21:32;4.18;;;3.33;;
76065;SDS011;64763;48.928;8.474;2023-04-09T13:23:57;4.18;;;3.75;;
76065;SDS011;64763;48.928;8.474;2023-04-09T13:26:23;4.93;;;3.90;;
76065;SDS011;64763;48.928;8.474;2023-04-09T13:28:48;4.95;;;3.70;;
76065;SDS011;64763;48.928;8.474;2023-04-09T13:31:15;5.13;;;4.10;;
76065;SDS011;64763;48.928;8.474;2023-04-09T13:33:41;5.35;;;3.90;;
76065;SDS011;64763;48.928;8.474;2023-04-09T13:36:06;4.22;;;3.35;;
76065;SDS011;64763;48.928;8.474;2023-04-09T13:38:32;4.82;;;3.38;;
76065;SDS011;64763;48.928;8.474;2023-04-09T13:40:57;4.20;;;3.13;;
76065;SDS011;64763;48.928;8.474;2023-04-09T13:43:22;5.20;;;3.58;;
76065;SDS011;64763;48.928;8.474;2023-04-09T13:45:52;4.75;;;3.65;;
76065;SDS011;64763;48.928;8.474;2023-04-09T13:48:18;6.13;;;3.28;;
76065;SDS011;64763;48.928;8.474;2023-04-09T13:50:43;4.28;;;3.33;;
76065;SDS011;64763;48.928;8.474;2023-04-09T13:53:09;5.32;;;4.00;;
76065;SDS011;64763;48.928;8.474;2023-04-09T13:55:35;4.22;;;3.50;;
76065;SDS011;64763;48.928;8.474;2023-04-09T13:58:00;5.13;;;3.67;;
76065;SDS011;64763;48.928;8.474;2023-04-09T14:00:25;4.93;;;3.75;;
76065;SDS011;64763;48.928;8.474;2023-04-09T14:02:51;4.57;;;3.40;;
76065;SDS011;64763;48.928;8.474;2023-04-09T14:05:16;4.20;;;3.25;;
76065;SDS011;64763;48.928;8.474;2023-04-09T14:07:42;5.05;;;3.67;;
76065;SDS011;64763;48.928;8.474;2023-04-09T14:10:07;3.85;;;3.45;;
76065;SDS011;64763;48.928;8.474;2023-04-09T14:12:33;6.03;;;3.72;;
76065;SDS011;64763;48.928;8.474;2023-04-09T14:14:58;6.13;;;3.47;;
76065;SDS011;64763;48.928;8.474;2023-04-09T14:17:23;4.47;;;3.58;;
76065;SDS011;64763;48.928;8.474;2023-04-09T14:19:49;4.28;;;3.53;;
76065;SDS011;64763;48.928;8.474;2023-04-09T14:22:14;3.85;;;3.10;;
76065;SDS011;64763;48.928;8.474;2023-04-09T14:24:40;5.60;;;3.90;;
76065;SDS011;64763;48.928;8.474;2023-04-09T14:27:05;5.05;;;3.60;;
76065;SDS011;64763;48.928;8.474;2023-04-09T14:29:32;4.22;;;3.17;;
76065;SDS011;64763;48.928;8.474;2023-04-09T14:31:57;4.55;;;3.80;;
76065;SDS011;64763;48.928;8.474;2023-04-09T14:34:24;4.60;;;3.72;;
76065;SDS011;64763;48.928;8.474;2023-04-09T14:36:49;4.40;;;3.60;;
76065;SDS011;64763;48.928;8.474;2023-04-09T14:39:14;4.25;;;3.35;;
76065;SDS011;64763;48.928;8.474;2023-04-09T14:41:40;6.25;;;3.35;;
76065;SDS011;64763;48.928;8.474;2023-04-09T14:44:05;4.68;;;3.65;;
76065;SDS011;64763;48.928;8.474;2023-04-09T14:46:31;4.57;;;3.88;;
76065;SDS011;64763;48.928;8.474;2023-04-09T14:48:56;4.53;;;3.70;;
76065;SDS011;64763;48.928;8.474;2023-04-09T14:51:21;4.97;;;3.55;;